createdAt,value
2022-09-28T00:00:58.358Z,7.93
2022-09-28T00:03:28.073Z,8.07
2022-09-28T00:06:02.637Z,7.57
2022-09-28T00:08:30.787Z,8.23
2022-09-28T00:10:58.996Z,8.40
2022-09-28T00:13:26.695Z,8.83
2022-09-28T00:16:02.592Z,8.70
2022-09-28T00:18:32.243Z,9.03
2022-09-28T00:21:04.741Z,9.20
2022-09-28T00:23:33.109Z,8.90
2022-09-28T00:26:03.880Z,8.80
2022-09-28T00:28:32.103Z,8.77
2022-09-28T00:31:00.332Z,8.90
2022-09-28T00:33:28.095Z,8.63
2022-09-28T00:35:58.769Z,8.57
2022-09-28T00:38:31.051Z,8.77
2022-09-28T00:40:59.670Z,7.97
2022-09-28T00:43:28.039Z,7.77
2022-09-28T00:46:00.144Z,8.53
2022-09-28T00:48:30.460Z,7.90
2022-09-28T00:51:04.937Z,8.23
2022-09-28T00:53:36.486Z,7.70
2022-09-28T00:56:09.212Z,7.10
2022-09-28T00:58:42.465Z,8.10
2022-09-28T01:01:10.337Z,8.07
2022-09-28T01:03:38.684Z,7.20
2022-09-28T01:06:09.254Z,7.47
2022-09-28T01:08:38.008Z,8.30
2022-09-28T01:11:05.963Z,7.87
2022-09-28T01:13:34.368Z,9.17
2022-09-28T01:16:10.776Z,9.13
2022-09-28T01:18:48.666Z,8.77
2022-09-28T01:21:20.048Z,10.27
2022-09-28T01:24:14.981Z,9.80
2022-09-28T01:26:50.282Z,10.90
2022-09-28T01:29:23.206Z,11.03
2022-09-28T01:31:57.685Z,11.90
2022-09-28T01:34:32.167Z,11.33
2022-09-28T01:37:04.274Z,12.17
2022-09-28T01:39:36.183Z,12.63
2022-09-28T01:42:13.009Z,12.83
2022-09-28T01:44:46.356Z,13.73
2022-09-28T01:47:18.834Z,12.70
2022-09-28T01:49:50.774Z,14.20
2022-09-28T01:52:24.122Z,15.07
2022-09-28T01:54:58.137Z,14.67
2022-09-28T01:57:33.555Z,14.40
2022-09-28T02:00:06.104Z,16.23
2022-09-28T02:02:39.656Z,15.97
2022-09-28T02:05:12.946Z,16.17
2022-09-28T02:07:45.797Z,16.17
2022-09-28T02:10:17.785Z,16.43
2022-09-28T02:12:52.379Z,16.70
2022-09-28T02:15:24.255Z,16.40
2022-09-28T02:17:52.539Z,16.33
2022-09-28T02:20:22.767Z,16.83
2022-09-28T02:22:52.810Z,17.20
2022-09-28T02:25:29.418Z,17.30
2022-09-28T02:28:01.959Z,19.87
2022-09-28T02:30:31.569Z,18.77
2022-09-28T02:33:06.362Z,19.50
2022-09-28T02:35:35.339Z,19.43
2022-09-28T02:38:03.282Z,19.70
2022-09-28T02:40:33.388Z,20.20
2022-09-28T02:43:11.352Z,19.13
2022-09-28T02:45:50.712Z,19.57
2022-09-28T02:48:43.696Z,19.20
2022-09-28T02:51:21.956Z,20.33
2022-09-28T02:54:22.571Z,20.60
2022-09-28T02:57:11.392Z,21.40
2022-09-28T02:59:50.827Z,21.17
2022-09-28T03:02:29.301Z,21.13
2022-09-28T03:05:07.748Z,20.93
2022-09-28T03:07:38.571Z,21.07
2022-09-28T03:10:14.889Z,20.07
2022-09-28T03:12:45.594Z,19.17
2022-09-28T03:15:22.029Z,19.33
2022-09-28T03:17:50.626Z,21.07
2022-09-28T03:20:19.458Z,22.20
2022-09-28T03:23:05.958Z,21.07
2022-09-28T03:25:35.489Z,20.77
2022-09-28T03:28:03.280Z,19.90
2022-09-28T03:30:32.390Z,19.50
2022-09-28T03:33:02.420Z,20.43
2022-09-28T03:35:30.169Z,20.13
2022-09-28T03:37:58.194Z,21.23
2022-09-28T03:40:27.134Z,20.10
2022-09-28T03:42:55.075Z,21.30
2022-09-28T03:45:22.821Z,19.40
2022-09-28T03:47:51.918Z,20.17
2022-09-28T03:50:19.650Z,21.13
2022-09-28T03:52:47.337Z,20.97
2022-09-28T03:55:15.329Z,20.03
2022-09-28T03:57:43.025Z,19.90
2022-09-28T04:00:11.848Z,20.53
2022-09-28T04:02:39.994Z,21.40
2022-09-28T04:05:09.944Z,20.70
2022-09-28T04:07:37.678Z,19.83
2022-09-28T04:10:05.870Z,20.90
2022-09-28T04:12:33.576Z,20.07
2022-09-28T04:15:01.284Z,20.50
2022-09-28T04:17:29.041Z,20.77
2022-09-28T04:19:57.736Z,20.13
2022-09-28T04:22:26.868Z,19.50
2022-09-28T04:24:55.008Z,20.60
2022-09-28T04:27:40.010Z,19.87
2022-09-28T04:30:08.972Z,20.17
2022-09-28T04:32:36.719Z,20.20
2022-09-28T04:35:04.753Z,18.87
2022-09-28T04:37:33.838Z,19.63
2022-09-28T04:40:01.890Z,20.40
2022-09-28T04:42:29.683Z,20.63
2022-09-28T04:44:58.792Z,20.20
2022-09-28T04:47:26.506Z,20.33
2022-09-28T04:49:54.601Z,20.23
2022-09-28T04:52:22.392Z,20.70
2022-09-28T04:54:51.503Z,20.70
2022-09-28T04:57:19.392Z,19.83
2022-09-28T04:59:47.084Z,20.47
2022-09-28T05:02:15.167Z,20.13
2022-09-28T05:04:43.069Z,20.10
2022-09-28T05:07:10.869Z,20.47
2022-09-28T05:09:38.774Z,19.17
2022-09-28T05:12:09.521Z,19.10
2022-09-28T05:14:37.212Z,19.97
2022-09-28T05:17:05.407Z,20.60
2022-09-28T05:19:34.886Z,20.30
2022-09-28T05:22:04.703Z,20.30
2022-09-28T05:24:32.474Z,20.53
2022-09-28T05:27:00.229Z,20.40
2022-09-28T05:29:32.155Z,19.70
2022-09-28T05:32:01.589Z,19.50
2022-09-28T05:34:29.522Z,20.20
2022-09-28T05:36:57.237Z,20.43
2022-09-28T05:39:25.038Z,20.37
2022-09-28T05:41:52.755Z,20.70
2022-09-28T05:44:20.439Z,21.03
2022-09-28T05:46:49.524Z,20.77
2022-09-28T05:49:17.269Z,20.17
2022-09-28T05:51:45.050Z,21.87
2022-09-28T05:54:12.806Z,21.07
2022-09-28T05:56:40.568Z,21.07
2022-09-28T05:59:08.268Z,21.37
2022-09-28T06:01:36.045Z,20.43
2022-09-28T06:04:05.125Z,19.07
2022-09-28T06:06:32.832Z,19.80
2022-09-28T06:09:00.604Z,20.80
2022-09-28T06:11:28.314Z,20.47
2022-09-28T06:13:56.379Z,21.13
2022-09-28T06:16:24.194Z,20.00
2022-09-28T06:18:52.094Z,19.77
2022-09-28T06:21:21.302Z,20.23
2022-09-28T06:23:51.213Z,19.73
2022-09-28T06:26:18.963Z,19.17
2022-09-28T06:28:46.689Z,19.27
2022-09-28T06:31:14.725Z,19.00
2022-09-28T06:33:42.707Z,18.93
2022-09-28T06:36:10.811Z,17.07
2022-09-28T06:38:39.882Z,17.10
2022-09-28T06:41:07.655Z,16.53
2022-09-28T06:43:36.731Z,16.57
2022-09-28T06:46:04.557Z,15.37
2022-09-28T06:48:33.501Z,15.20
2022-09-28T06:51:01.765Z,15.43
2022-09-28T06:53:30.391Z,15.27
2022-09-28T06:56:00.571Z,16.30
2022-09-28T06:58:28.283Z,14.97
2022-09-28T07:00:59.535Z,15.43
2022-09-28T07:03:27.585Z,14.30
2022-09-28T07:05:56.598Z,14.43
2022-09-28T07:08:26.251Z,14.47
2022-09-28T07:10:56.262Z,13.47
2022-09-28T07:13:50.273Z,14.03
2022-09-28T07:16:15.824Z,12.90
2022-09-28T07:18:43.597Z,12.37
2022-09-28T07:21:24.151Z,12.70
2022-09-28T07:23:56.300Z,12.13
2022-09-28T07:26:24.859Z,11.43
2022-09-28T07:28:54.260Z,11.47
2022-09-28T07:31:22.263Z,12.00
2022-09-28T07:33:51.613Z,11.43
2022-09-28T07:36:20.884Z,11.83
2022-09-28T07:38:48.927Z,11.67
2022-09-28T07:41:21.615Z,12.27
2022-09-28T07:43:50.124Z,11.23
2022-09-28T07:46:20.645Z,11.00
2022-09-28T07:48:49.566Z,10.57
2022-09-28T07:51:19.765Z,10.93
2022-09-28T07:53:48.039Z,9.87
2022-09-28T07:56:17.425Z,9.50
2022-09-28T07:58:45.146Z,9.33
2022-09-28T08:01:14.916Z,9.53
2022-09-28T08:03:47.869Z,9.70
2022-09-28T08:06:18.016Z,9.27
2022-09-28T08:08:46.117Z,9.60
2022-09-28T08:11:14.538Z,9.50
2022-09-28T08:13:42.622Z,8.93
2022-09-28T08:16:11.845Z,9.53
2022-09-28T08:18:39.674Z,9.13
2022-09-28T08:21:25.988Z,8.73
2022-09-28T08:23:54.023Z,8.83
2022-09-28T08:26:21.796Z,9.37
2022-09-28T08:28:50.105Z,9.00
2022-09-28T08:31:17.890Z,8.60
2022-09-28T08:33:45.735Z,6.60
2022-09-28T08:36:14.914Z,6.60
2022-09-28T08:38:43.530Z,7.00
2022-09-28T08:41:20.095Z,6.67
2022-09-28T08:44:04.841Z,6.70
2022-09-28T08:46:38.488Z,5.67
2022-09-28T08:49:26.394Z,6.10
2022-09-28T08:52:01.648Z,5.40
2022-09-28T08:54:39.734Z,5.90
2022-09-28T08:57:12.455Z,5.90
2022-09-28T08:59:52.311Z,5.60
2022-09-28T09:02:25.479Z,5.40
2022-09-28T09:04:53.954Z,6.23
2022-09-28T09:07:46.528Z,5.30
2022-09-28T09:10:30.837Z,5.10
2022-09-28T09:13:12.543Z,4.43
2022-09-28T09:15:51.536Z,4.73
2022-09-28T09:18:27.765Z,5.70
2022-09-28T09:20:58.527Z,4.40
2022-09-28T09:23:37.525Z,5.10
2022-09-28T09:26:16.558Z,5.30
2022-09-28T09:28:57.352Z,4.70
2022-09-28T09:31:40.673Z,4.30
2022-09-28T09:34:33.518Z,4.70
2022-09-28T09:37:12.390Z,4.10
2022-09-28T09:39:52.342Z,4.50
2022-09-28T09:42:37.257Z,4.10
2022-09-28T09:45:29.050Z,3.83
2022-09-28T09:48:03.265Z,3.20
2022-09-28T09:50:36.401Z,3.40
2022-09-28T09:53:11.104Z,3.40
2022-09-28T09:55:44.915Z,3.10
2022-09-28T09:58:18.106Z,3.00
2022-09-28T10:00:49.067Z,3.07
2022-09-28T10:03:23.234Z,2.80
2022-09-28T10:05:57.665Z,3.60
2022-09-28T10:08:28.146Z,3.30
2022-09-28T10:11:07.646Z,3.43
2022-09-28T10:13:35.491Z,3.43
2022-09-28T10:16:04.024Z,2.90
2022-09-28T10:18:31.705Z,2.83
2022-09-28T10:20:59.415Z,2.87
2022-09-28T10:23:30.460Z,3.00
2022-09-28T10:26:04.950Z,2.40
2022-09-28T10:28:36.871Z,2.30
2022-09-28T10:31:35.420Z,2.20
2022-09-28T10:34:04.493Z,1.90
2022-09-28T10:36:38.320Z,2.20
2022-09-28T10:39:06.638Z,2.13
2022-09-28T10:41:49.579Z,2.20
2022-09-28T10:44:19.545Z,2.70
2022-09-28T10:46:57.764Z,2.93
2022-09-28T10:49:27.116Z,2.30
2022-09-28T10:51:56.287Z,2.30
2022-09-28T10:54:26.222Z,2.53
2022-09-28T10:56:57.118Z,2.40
2022-09-28T10:59:40.787Z,2.20
2022-09-28T11:02:22.076Z,2.30
2022-09-28T11:04:55.300Z,2.00
2022-09-28T11:07:25.810Z,2.17
2022-09-28T11:09:56.166Z,2.37
2022-09-28T11:12:27.999Z,2.63
2022-09-28T11:15:01.974Z,2.40
2022-09-28T11:17:32.595Z,2.23
2022-09-28T11:20:02.753Z,2.77
2022-09-28T11:22:41.780Z,3.10
2022-09-28T11:25:22.320Z,2.63
2022-09-28T11:28:04.917Z,2.67
2022-09-28T11:30:35.839Z,2.80
2022-09-28T11:33:06.248Z,2.77
2022-09-28T11:35:46.938Z,2.70
2022-09-28T11:38:34.038Z,2.80
2022-09-28T11:41:17.118Z,2.43
2022-09-28T11:44:17.257Z,2.70
2022-09-28T11:46:53.449Z,2.43
2022-09-28T11:49:31.756Z,2.50
2022-09-28T11:52:04.309Z,2.20
2022-09-28T11:54:41.395Z,2.20
2022-09-28T11:57:15.730Z,2.40
2022-09-28T11:59:55.401Z,2.77
2022-09-28T12:02:27.481Z,2.80
2022-09-28T12:04:59.292Z,2.50
2022-09-28T12:07:32.073Z,2.40
2022-09-28T12:10:04.526Z,2.87
2022-09-28T12:12:36.785Z,2.80
2022-09-28T12:15:16.247Z,3.20
2022-09-28T12:17:48.229Z,5.57
2022-09-28T12:20:23.712Z,9.07
2022-09-28T12:23:02.373Z,10.03
2022-09-28T12:25:38.713Z,9.97
2022-09-28T12:28:09.541Z,10.07
2022-09-28T12:30:42.502Z,9.87
2022-09-28T12:33:13.838Z,7.27
2022-09-28T12:35:54.721Z,7.43
2022-09-28T12:38:38.421Z,5.83
2022-09-28T12:41:20.998Z,5.80
2022-09-28T12:44:01.784Z,7.73
2022-09-28T12:46:40.111Z,8.90
2022-09-28T12:52:29.854Z,8.63
2022-09-28T12:55:20.079Z,8.63
2022-09-28T12:57:58.266Z,9.90
2022-09-28T13:00:32.192Z,9.27
2022-09-28T13:03:22.546Z,9.00
2022-09-28T13:06:16.424Z,9.33
2022-09-28T13:08:57.628Z,8.60
2022-09-28T13:11:34.097Z,7.97
2022-09-28T13:14:22.726Z,8.40
2022-09-28T13:17:01.409Z,7.47
2022-09-28T13:19:42.209Z,7.40
2022-09-28T13:22:23.915Z,9.20
2022-09-28T13:24:56.188Z,8.73
2022-09-28T13:27:32.951Z,7.47
2022-09-28T13:30:03.821Z,10.77
2022-09-28T13:32:33.562Z,7.83
2022-09-28T13:35:03.338Z,7.30
2022-09-28T13:37:31.128Z,7.63
2022-09-28T13:39:59.830Z,7.07
2022-09-28T13:42:52.974Z,11.43
2022-09-28T13:45:56.613Z,7.97
2022-09-28T13:48:35.692Z,15.63
2022-09-28T13:51:30.496Z,8.60
2022-09-28T13:54:17.274Z,7.80
2022-09-28T13:56:54.949Z,7.97
2022-09-28T13:59:27.010Z,7.00
2022-09-28T14:02:06.560Z,6.60
2022-09-28T14:04:54.951Z,7.07
2022-09-28T14:10:18.694Z,10.60
2022-09-28T14:12:49.599Z,8.33
2022-09-28T14:15:40.249Z,7.20
2022-09-28T14:18:19.139Z,7.47
2022-09-28T14:20:58.736Z,6.43
2022-09-28T14:23:58.926Z,6.20
2022-09-28T14:26:56.612Z,5.57
2022-09-28T14:29:31.398Z,5.60
2022-09-28T14:32:04.657Z,7.97
2022-09-28T14:34:36.710Z,6.33
2022-09-28T14:37:34.686Z,5.23
2022-09-28T14:40:34.443Z,5.90
2022-09-28T14:43:28.574Z,6.03
2022-09-28T14:46:28.446Z,6.53
2022-09-28T14:48:57.265Z,6.57
2022-09-28T14:52:02.571Z,6.77
2022-09-28T14:54:40.923Z,7.63
2022-09-28T14:57:19.213Z,14.13
2022-09-28T14:59:47.752Z,7.47
2022-09-28T15:02:21.644Z,6.50
2022-09-28T15:04:53.332Z,6.77
2022-09-28T15:07:23.800Z,7.00
2022-09-28T15:09:53.581Z,6.97
2022-09-28T15:12:26.966Z,7.27
2022-09-28T15:14:58.316Z,6.83
2022-09-28T15:17:29.426Z,7.47
2022-09-28T15:20:24.360Z,4.63
2022-09-28T15:22:57.054Z,4.53
2022-09-28T15:25:26.880Z,4.20
2022-09-28T15:27:57.629Z,5.17
2022-09-28T15:30:28.859Z,4.90
2022-09-28T15:33:18.223Z,5.17
2022-09-28T15:35:49.772Z,5.00
2022-09-28T15:38:18.736Z,5.23
2022-09-28T15:40:47.731Z,5.80
2022-09-28T15:43:27.139Z,6.03
2022-09-28T15:46:07.192Z,6.27
2022-09-28T15:48:40.958Z,6.47
2022-09-28T15:51:11.842Z,6.30
2022-09-28T15:53:48.262Z,6.53
2022-09-28T15:56:16.153Z,7.87
2022-09-28T15:58:47.006Z,6.47
2022-09-28T16:01:36.078Z,7.57
2022-09-28T16:04:39.171Z,5.50
2022-09-28T16:07:20.322Z,8.70
2022-09-28T16:10:02.910Z,6.37
2022-09-28T16:12:43.288Z,5.67
2022-09-28T16:15:20.325Z,5.43
2022-09-28T16:17:53.469Z,5.40
2022-09-28T16:20:29.400Z,5.33
2022-09-28T16:22:59.586Z,5.20
2022-09-28T16:25:28.331Z,4.97
2022-09-28T16:27:56.829Z,5.23
2022-09-28T16:30:28.814Z,5.70
2022-09-28T16:32:58.057Z,5.90
2022-09-28T16:35:28.386Z,5.90
2022-09-28T16:38:02.389Z,6.33
2022-09-28T16:40:31.740Z,5.50
2022-09-28T16:43:02.903Z,5.60
2022-09-28T16:45:32.955Z,5.73
2022-09-28T16:48:01.662Z,5.83
2022-09-28T16:50:29.694Z,5.60
2022-09-28T16:53:19.201Z,5.70
2022-09-28T16:55:48.929Z,6.90
2022-09-28T16:58:16.676Z,6.10
2022-09-28T17:00:45.782Z,5.77
2022-09-28T17:03:19.316Z,5.90
2022-09-28T17:05:49.070Z,5.73
2022-09-28T17:08:19.600Z,5.93
2022-09-28T17:11:14.038Z,6.47
2022-09-28T17:13:41.475Z,6.10
2022-09-28T17:16:15.077Z,6.27
2022-09-28T17:18:43.027Z,6.57
2022-09-28T17:21:15.854Z,6.87
2022-09-28T17:23:44.008Z,7.27
2022-09-28T17:26:19.399Z,8.07
2022-09-28T17:28:47.444Z,7.20
2022-09-28T17:31:17.556Z,6.80
2022-09-28T17:33:45.357Z,7.13
2022-09-28T17:36:16.038Z,7.93
2022-09-28T17:38:44.464Z,30.53
2022-09-28T17:41:16.793Z,7.80
2022-09-28T17:43:47.400Z,8.07
2022-09-28T17:46:27.160Z,8.13
2022-09-28T17:48:57.679Z,8.10
2022-09-28T17:51:25.362Z,8.90
2022-09-28T17:53:53.306Z,9.80
2022-09-28T17:56:21.303Z,21.37
2022-09-28T17:58:49.149Z,13.93
2022-09-28T18:01:17.036Z,13.47
2022-09-28T18:03:46.134Z,10.53
2022-09-28T18:06:15.677Z,10.20
2022-09-28T18:08:44.408Z,11.13
2022-09-28T18:11:12.543Z,10.67
2022-09-28T18:13:40.630Z,10.93
2022-09-28T18:16:09.419Z,11.53
2022-09-28T18:18:39.745Z,10.80
2022-09-28T18:21:09.083Z,10.70
2022-09-28T18:23:37.308Z,11.67
2022-09-28T18:26:05.549Z,11.80
2022-09-28T18:28:33.233Z,12.93
2022-09-28T18:31:00.974Z,12.43
2022-09-28T18:33:28.694Z,12.40
2022-09-28T18:35:56.466Z,12.80
2022-09-28T18:38:25.568Z,13.50
2022-09-28T18:40:54.522Z,12.70
2022-09-28T18:43:22.278Z,12.90
2022-09-28T18:45:50.006Z,12.13
2022-09-28T18:48:17.812Z,12.13
2022-09-28T18:50:45.553Z,12.37
2022-09-28T18:53:13.309Z,16.77
2022-09-28T18:55:44.690Z,13.83
2022-09-28T18:58:12.986Z,12.77
2022-09-28T19:00:42.402Z,12.30
2022-09-28T19:03:14.372Z,12.80
2022-09-28T19:05:43.121Z,11.67
2022-09-28T19:08:11.008Z,11.77
2022-09-28T19:10:38.710Z,12.20
2022-09-28T19:13:07.811Z,12.30
2022-09-28T19:15:35.657Z,12.47
2022-09-28T19:18:03.926Z,11.77
2022-09-28T19:20:33.743Z,11.40
2022-09-28T19:23:02.050Z,11.83
2022-09-28T19:25:29.914Z,11.60
2022-09-28T19:27:57.697Z,12.67
2022-09-28T19:30:26.760Z,12.93
2022-09-28T19:32:54.464Z,12.33
2022-09-28T19:35:22.180Z,12.33
2022-09-28T19:37:51.397Z,16.67
2022-09-28T19:40:19.194Z,14.23
2022-09-28T19:42:46.998Z,13.23
2022-09-28T19:45:14.713Z,12.27
2022-09-28T19:47:44.005Z,12.13
2022-09-28T19:50:11.713Z,11.90
2022-09-28T19:52:39.396Z,12.00
2022-09-28T19:55:08.208Z,10.73
2022-09-28T19:57:36.001Z,11.40
2022-09-28T20:00:04.183Z,11.77
2022-09-28T20:02:32.115Z,11.00
2022-09-28T20:05:01.390Z,11.47
2022-09-28T20:07:33.071Z,11.07
2022-09-28T20:10:00.921Z,11.10
2022-09-28T20:12:28.717Z,11.37
2022-09-28T20:14:56.431Z,11.27
2022-09-28T20:17:24.213Z,10.93
2022-09-28T20:19:52.247Z,11.50
2022-09-28T20:22:21.410Z,10.10
2022-09-28T20:24:49.103Z,10.87
2022-09-28T20:27:16.840Z,9.97
2022-09-28T20:29:44.510Z,9.53
2022-09-28T20:32:12.563Z,10.77
2022-09-28T20:34:40.264Z,10.60
2022-09-28T20:37:07.970Z,11.57
2022-09-28T20:39:40.347Z,10.57
2022-09-28T20:42:10.549Z,9.73
2022-09-28T20:44:38.282Z,11.53
2022-09-28T20:47:06.109Z,10.17
2022-09-28T20:49:33.793Z,10.63
2022-09-28T20:52:01.688Z,11.30
2022-09-28T20:54:29.390Z,11.43
2022-09-28T20:56:58.475Z,11.30
2022-09-28T20:59:27.685Z,11.57
2022-09-28T21:01:55.419Z,11.47
2022-09-28T21:04:23.168Z,11.47
2022-09-28T21:06:50.893Z,11.00
2022-09-28T21:09:18.591Z,11.00
2022-09-28T21:11:46.764Z,11.13
2022-09-28T21:14:15.878Z,11.73
2022-09-28T21:16:43.617Z,12.00
2022-09-28T21:19:11.397Z,11.93
2022-09-28T21:21:39.476Z,11.73
2022-09-28T21:24:07.809Z,11.50
2022-09-28T21:26:35.575Z,11.87
2022-09-28T21:29:04.787Z,12.23
2022-09-28T21:31:39.106Z,11.60
2022-09-28T21:34:07.169Z,13.20
2022-09-28T21:36:34.938Z,12.60
2022-09-28T21:39:05.017Z,13.23
2022-09-28T21:41:36.036Z,13.87
2022-09-28T21:44:03.901Z,13.37
2022-09-28T21:46:34.720Z,12.83
2022-09-28T21:49:02.975Z,12.87
2022-09-28T21:51:31.385Z,12.83
2022-09-28T21:53:59.259Z,12.07
2022-09-28T21:56:27.747Z,12.40
2022-09-28T21:58:55.474Z,12.43
2022-09-28T22:01:25.538Z,13.33
2022-09-28T22:03:57.249Z,13.57
2022-09-28T22:06:28.187Z,12.90
2022-09-28T22:08:56.479Z,13.07
2022-09-28T22:11:26.093Z,12.33
2022-09-28T22:13:56.418Z,12.30
2022-09-28T22:16:26.279Z,13.73
2022-09-28T22:18:58.601Z,12.40
2022-09-28T22:21:28.281Z,13.33
2022-09-28T22:24:00.838Z,13.10
2022-09-28T22:26:29.400Z,11.70
2022-09-28T22:28:58.729Z,13.30
2022-09-28T22:31:29.557Z,13.43
2022-09-28T22:33:59.106Z,12.23
2022-09-28T22:36:27.152Z,13.63
2022-09-28T22:38:56.051Z,13.00
2022-09-28T22:41:24.927Z,13.50
2022-09-28T22:43:54.569Z,14.03
2022-09-28T22:46:23.977Z,13.23
2022-09-28T22:48:53.246Z,13.47
2022-09-28T22:51:23.402Z,13.20
2022-09-28T22:53:51.197Z,13.67
2022-09-28T22:56:19.421Z,14.13
2022-09-28T22:58:47.876Z,15.00
2022-09-28T23:01:18.530Z,13.73
2022-09-28T23:03:46.680Z,13.80
2022-09-28T23:06:16.570Z,14.50
2022-09-28T23:08:47.293Z,14.60
2022-09-28T23:11:15.769Z,13.73
2022-09-28T23:13:43.513Z,13.63
2022-09-28T23:16:14.831Z,13.73
2022-09-28T23:18:42.898Z,13.93
2022-09-28T23:21:15.205Z,14.33
2022-09-28T23:23:43.327Z,14.50
2022-09-28T23:26:15.957Z,14.27
2022-09-28T23:28:43.884Z,14.27
2022-09-28T23:31:13.730Z,15.20
2022-09-28T23:33:41.818Z,14.47
2022-09-28T23:36:10.460Z,13.47
2022-09-28T23:38:38.479Z,13.93
2022-09-28T23:41:06.299Z,14.80
2022-09-28T23:43:36.152Z,15.00
2022-09-28T23:46:04.352Z,14.13
2022-09-28T23:48:32.484Z,15.20
2022-09-28T23:51:00.612Z,14.63
2022-09-28T23:53:29.258Z,14.67
2022-09-28T23:55:56.973Z,15.37
2022-09-28T23:58:25.724Z,14.73
